Ashburnham, Massachusetts
Current Conditions -  °F | °C
As of 4:21 AM on Friday 24 Oct 2014 (Local Time) from KFIT Reporting Station
Light Rain Light Rain  
Wind Chill: 51°   Ceiling: 2500
Heat Index: 51°   Visibility: 10mi
Dew Point: 47°   Wind: 7mph
Humidity: 86%   Direction: 330°NNW
Pressure: 29.7"   Gusts: NA
Location:  42.64°N, 71.91°W
Report Text: KFIT 240821Z AUTO 33006KT 10SM -RA OVC025 11/08 A2970 RMK AO2 RAE0753B13 P0000 T01060083
Loading
Personal Weather Stations






























Interactive Weather Map
Tropical Storm Tracking
New forecast layout! Learn more

10-Day Weather Forecast

Advertisements
Track Severe Weather on mobile